sensor_id;sensor_type;location;lat;lon;timestamp;P1;durP1;ratioP1;P2;durP2;ratioP2
67757;SDS011;54562;47.620;18.786;2023-08-12T00:09:08;6.90;;;3.80;;
67757;SDS011;54562;47.620;18.786;2023-08-12T00:12:15;7.60;;;3.90;;
67757;SDS011;54562;47.620;18.786;2023-08-12T00:15:21;8.20;;;4.00;;
67757;SDS011;54562;47.620;18.786;2023-08-12T00:18:27;6.30;;;3.70;;
67757;SDS011;54562;47.620;18.786;2023-08-12T00:21:39;7.20;;;3.90;;
67757;SDS011;54562;47.620;18.786;2023-08-12T00:24:46;6.20;;;3.70;;
67757;SDS011;54562;47.620;18.786;2023-08-12T00:27:53;7.50;;;3.60;;
67757;SDS011;54562;47.620;18.786;2023-08-12T00:30:59;6.20;;;3.50;;
67757;SDS011;54562;47.620;18.786;2023-08-12T00:34:08;7.20;;;3.80;;
67757;SDS011;54562;47.620;18.786;2023-08-12T00:37:14;6.90;;;3.50;;
67757;SDS011;54562;47.620;18.786;2023-08-12T00:40:20;6.30;;;3.60;;
67757;SDS011;54562;47.620;18.786;2023-08-12T00:43:27;5.50;;;3.30;;
67757;SDS011;54562;47.620;18.786;2023-08-12T00:46:33;6.30;;;3.40;;
67757;SDS011;54562;47.620;18.786;2023-08-12T00:49:40;6.90;;;3.80;;
67757;SDS011;54562;47.620;18.786;2023-08-12T00:52:48;6.10;;;3.70;;
67757;SDS011;54562;47.620;18.786;2023-08-12T00:55:55;7.10;;;3.60;;
67757;SDS011;54562;47.620;18.786;2023-08-12T00:59:02;7.50;;;3.60;;
67757;SDS011;54562;47.620;18.786;2023-08-12T01:02:09;7.10;;;3.90;;
67757;SDS011;54562;47.620;18.786;2023-08-12T01:05:17;6.50;;;3.70;;
67757;SDS011;54562;47.620;18.786;2023-08-12T01:08:24;7.00;;;3.90;;
67757;SDS011;54562;47.620;18.786;2023-08-12T01:11:34;7.70;;;4.30;;
67757;SDS011;54562;47.620;18.786;2023-08-12T01:14:45;6.70;;;3.70;;
67757;SDS011;54562;47.620;18.786;2023-08-12T01:17:53;9.20;;;3.60;;
67757;SDS011;54562;47.620;18.786;2023-08-12T01:21:01;6.20;;;3.80;;
67757;SDS011;54562;47.620;18.786;2023-08-12T01:24:08;8.30;;;3.80;;
67757;SDS011;54562;47.620;18.786;2023-08-12T01:27:15;6.50;;;3.70;;
67757;SDS011;54562;47.620;18.786;2023-08-12T01:30:21;7.40;;;3.80;;
67757;SDS011;54562;47.620;18.786;2023-08-12T01:33:29;8.70;;;3.90;;
67757;SDS011;54562;47.620;18.786;2023-08-12T01:36:38;6.80;;;4.00;;
67757;SDS011;54562;47.620;18.786;2023-08-12T01:39:46;7.70;;;4.10;;
67757;SDS011;54562;47.620;18.786;2023-08-12T01:42:53;6.70;;;3.90;;
67757;SDS011;54562;47.620;18.786;2023-08-12T01:45:59;6.80;;;4.00;;
67757;SDS011;54562;47.620;18.786;2023-08-12T01:49:06;6.00;;;3.80;;
67757;SDS011;54562;47.620;18.786;2023-08-12T01:52:13;9.50;;;4.30;;
67757;SDS011;54562;47.620;18.786;2023-08-12T01:55:20;6.20;;;3.90;;
67757;SDS011;54562;47.620;18.786;2023-08-12T01:58:26;6.50;;;4.10;;
67757;SDS011;54562;47.620;18.786;2023-08-12T02:01:32;6.60;;;4.20;;
67757;SDS011;54562;47.620;18.786;2023-08-12T02:04:40;6.60;;;4.00;;
67757;SDS011;54562;47.620;18.786;2023-08-12T02:07:47;6.90;;;4.10;;
67757;SDS011;54562;47.620;18.786;2023-08-12T02:10:54;7.30;;;4.10;;
67757;SDS011;54562;47.620;18.786;2023-08-12T02:14:00;9.10;;;4.20;;
67757;SDS011;54562;47.620;18.786;2023-08-12T02:17:06;6.80;;;4.10;;
67757;SDS011;54562;47.620;18.786;2023-08-12T02:20:14;8.30;;;4.00;;
67757;SDS011;54562;47.620;18.786;2023-08-12T02:23:21;7.10;;;4.30;;
67757;SDS011;54562;47.620;18.786;2023-08-12T02:26:28;7.00;;;4.20;;
67757;SDS011;54562;47.620;18.786;2023-08-12T02:29:34;7.00;;;3.90;;
67757;SDS011;54562;47.620;18.786;2023-08-12T02:32:41;6.90;;;4.30;;
67757;SDS011;54562;47.620;18.786;2023-08-12T02:35:48;6.80;;;4.30;;
67757;SDS011;54562;47.620;18.786;2023-08-12T02:38:57;7.20;;;4.30;;
67757;SDS011;54562;47.620;18.786;2023-08-12T02:42:04;9.40;;;4.50;;
67757;SDS011;54562;47.620;18.786;2023-08-12T02:45:10;7.00;;;4.20;;
67757;SDS011;54562;47.620;18.786;2023-08-12T02:48:17;6.70;;;4.10;;
67757;SDS011;54562;47.620;18.786;2023-08-12T02:51:23;7.00;;;4.30;;
67757;SDS011;54562;47.620;18.786;2023-08-12T02:54:30;7.60;;;4.60;;
67757;SDS011;54562;47.620;18.786;2023-08-12T02:57:36;7.00;;;4.30;;
67757;SDS011;54562;47.620;18.786;2023-08-12T03:00:42;7.40;;;4.20;;
67757;SDS011;54562;47.620;18.786;2023-08-12T03:03:50;7.30;;;4.50;;
67757;SDS011;54562;47.620;18.786;2023-08-12T03:06:56;6.90;;;4.30;;
67757;SDS011;54562;47.620;18.786;2023-08-12T03:10:03;7.50;;;4.00;;
67757;SDS011;54562;47.620;18.786;2023-08-12T03:13:11;7.00;;;4.50;;
67757;SDS011;54562;47.620;18.786;2023-08-12T03:16:18;6.90;;;4.20;;
67757;SDS011;54562;47.620;18.786;2023-08-12T03:19:25;7.20;;;4.50;;
67757;SDS011;54562;47.620;18.786;2023-08-12T03:22:31;7.60;;;4.60;;
67757;SDS011;54562;47.620;18.786;2023-08-12T03:25:37;6.30;;;4.00;;
67757;SDS011;54562;47.620;18.786;2023-08-12T03:28:43;8.00;;;4.80;;
67757;SDS011;54562;47.620;18.786;2023-08-12T03:31:50;6.80;;;4.30;;
67757;SDS011;54562;47.620;18.786;2023-08-12T03:34:57;6.40;;;4.20;;
67757;SDS011;54562;47.620;18.786;2023-08-12T03:38:04;8.50;;;4.60;;
67757;SDS011;54562;47.620;18.786;2023-08-12T03:41:10;7.70;;;4.50;;
67757;SDS011;54562;47.620;18.786;2023-08-12T03:44:17;6.30;;;4.00;;
67757;SDS011;54562;47.620;18.786;2023-08-12T03:47:23;6.50;;;4.20;;
67757;SDS011;54562;47.620;18.786;2023-08-12T03:50:32;7.50;;;4.50;;
67757;SDS011;54562;47.620;18.786;2023-08-12T03:53:39;6.80;;;4.20;;
67757;SDS011;54562;47.620;18.786;2023-08-12T03:56:46;7.40;;;4.40;;
67757;SDS011;54562;47.620;18.786;2023-08-12T03:59:53;7.00;;;4.40;;
67757;SDS011;54562;47.620;18.786;2023-08-12T04:03:00;8.00;;;4.70;;
67757;SDS011;54562;47.620;18.786;2023-08-12T04:06:07;7.60;;;4.90;;
67757;SDS011;54562;47.620;18.786;2023-08-12T04:09:15;7.40;;;5.00;;
67757;SDS011;54562;47.620;18.786;2023-08-12T04:12:21;8.60;;;4.80;;
67757;SDS011;54562;47.620;18.786;2023-08-12T04:15:29;9.90;;;5.10;;
67757;SDS011;54562;47.620;18.786;2023-08-12T04:18:35;7.10;;;4.80;;
67757;SDS011;54562;47.620;18.786;2023-08-12T04:21:42;7.00;;;4.50;;
67757;SDS011;54562;47.620;18.786;2023-08-12T04:24:50;7.50;;;4.40;;
67757;SDS011;54562;47.620;18.786;2023-08-12T04:27:56;7.50;;;4.50;;
67757;SDS011;54562;47.620;18.786;2023-08-12T04:31:05;9.30;;;4.60;;
67757;SDS011;54562;47.620;18.786;2023-08-12T04:34:14;7.00;;;4.30;;
67757;SDS011;54562;47.620;18.786;2023-08-12T04:37:20;7.10;;;4.30;;
67757;SDS011;54562;47.620;18.786;2023-08-12T04:40:28;7.90;;;4.30;;
67757;SDS011;54562;47.620;18.786;2023-08-12T04:43:34;7.20;;;4.40;;
67757;SDS011;54562;47.620;18.786;2023-08-12T04:46:42;7.30;;;4.40;;
67757;SDS011;54562;47.620;18.786;2023-08-12T04:49:49;6.90;;;4.40;;
67757;SDS011;54562;47.620;18.786;2023-08-12T04:52:56;9.20;;;4.30;;
67757;SDS011;54562;47.620;18.786;2023-08-12T04:56:04;7.30;;;4.40;;
67757;SDS011;54562;47.620;18.786;2023-08-12T04:59:11;6.90;;;4.40;;
67757;SDS011;54562;47.620;18.786;2023-08-12T05:02:17;6.70;;;4.30;;
67757;SDS011;54562;47.620;18.786;2023-08-12T05:05:25;8.30;;;4.30;;
67757;SDS011;54562;47.620;18.786;2023-08-12T05:08:31;6.50;;;4.10;;
67757;SDS011;54562;47.620;18.786;2023-08-12T05:11:38;8.40;;;4.20;;
67757;SDS011;54562;47.620;18.786;2023-08-12T05:14:44;6.60;;;4.00;;
67757;SDS011;54562;47.620;18.786;2023-08-12T05:17:51;7.00;;;3.70;;
67757;SDS011;54562;47.620;18.786;2023-08-12T05:20:57;6.60;;;3.90;;
67757;SDS011;54562;47.620;18.786;2023-08-12T05:24:05;7.70;;;4.10;;
67757;SDS011;54562;47.620;18.786;2023-08-12T05:27:11;6.40;;;3.90;;
67757;SDS011;54562;47.620;18.786;2023-08-12T05:30:18;6.60;;;3.90;;
67757;SDS011;54562;47.620;18.786;2023-08-12T05:33:24;6.80;;;4.10;;
67757;SDS011;54562;47.620;18.786;2023-08-12T05:36:31;6.60;;;3.90;;
67757;SDS011;54562;47.620;18.786;2023-08-12T05:39:37;7.40;;;4.00;;
67757;SDS011;54562;47.620;18.786;2023-08-12T05:42:44;7.30;;;3.50;;
67757;SDS011;54562;47.620;18.786;2023-08-12T05:45:50;6.30;;;3.70;;
67757;SDS011;54562;47.620;18.786;2023-08-12T05:48:57;6.10;;;3.60;;
67757;SDS011;54562;47.620;18.786;2023-08-12T05:52:04;6.60;;;3.30;;
67757;SDS011;54562;47.620;18.786;2023-08-12T05:55:10;6.00;;;3.40;;
67757;SDS011;54562;47.620;18.786;2023-08-12T05:58:17;7.20;;;3.60;;
67757;SDS011;54562;47.620;18.786;2023-08-12T06:01:24;8.40;;;3.40;;
67757;SDS011;54562;47.620;18.786;2023-08-12T06:04:30;7.80;;;3.30;;
67757;SDS011;54562;47.620;18.786;2023-08-12T06:07:37;6.40;;;3.10;;
67757;SDS011;54562;47.620;18.786;2023-08-12T06:10:43;5.80;;;3.20;;
67757;SDS011;54562;47.620;18.786;2023-08-12T06:13:51;7.20;;;3.20;;
67757;SDS011;54562;47.620;18.786;2023-08-12T06:16:57;6.00;;;3.30;;
67757;SDS011;54562;47.620;18.786;2023-08-12T06:20:04;5.60;;;3.20;;
67757;SDS011;54562;47.620;18.786;2023-08-12T06:23:12;5.70;;;3.30;;
67757;SDS011;54562;47.620;18.786;2023-08-12T06:26:19;5.70;;;2.90;;
67757;SDS011;54562;47.620;18.786;2023-08-12T06:29:25;7.50;;;2.80;;
67757;SDS011;54562;47.620;18.786;2023-08-12T06:32:33;5.60;;;3.00;;
67757;SDS011;54562;47.620;18.786;2023-08-12T06:35:39;7.00;;;3.10;;
67757;SDS011;54562;47.620;18.786;2023-08-12T06:38:48;7.50;;;3.10;;
67757;SDS011;54562;47.620;18.786;2023-08-12T06:41:55;8.40;;;3.30;;
67757;SDS011;54562;47.620;18.786;2023-08-12T06:45:04;5.80;;;3.10;;
67757;SDS011;54562;47.620;18.786;2023-08-12T06:48:12;6.90;;;2.90;;
67757;SDS011;54562;47.620;18.786;2023-08-12T06:51:19;6.00;;;2.80;;
67757;SDS011;54562;47.620;18.786;2023-08-12T06:54:26;6.00;;;2.80;;
67757;SDS011;54562;47.620;18.786;2023-08-12T06:57:34;7.10;;;2.90;;
67757;SDS011;54562;47.620;18.786;2023-08-12T07:00:41;5.70;;;2.90;;
67757;SDS011;54562;47.620;18.786;2023-08-12T07:03:48;5.30;;;2.80;;
67757;SDS011;54562;47.620;18.786;2023-08-12T07:06:54;5.40;;;2.70;;
67757;SDS011;54562;47.620;18.786;2023-08-12T07:10:01;6.60;;;2.90;;
67757;SDS011;54562;47.620;18.786;2023-08-12T07:13:09;6.20;;;2.70;;
67757;SDS011;54562;47.620;18.786;2023-08-12T07:16:16;5.00;;;2.70;;
67757;SDS011;54562;47.620;18.786;2023-08-12T07:19:22;8.10;;;3.00;;
67757;SDS011;54562;47.620;18.786;2023-08-12T07:22:29;5.20;;;2.80;;
67757;SDS011;54562;47.620;18.786;2023-08-12T07:25:35;5.90;;;2.60;;
67757;SDS011;54562;47.620;18.786;2023-08-12T07:28:42;5.50;;;2.60;;
67757;SDS011;54562;47.620;18.786;2023-08-12T07:31:48;5.30;;;2.80;;
67757;SDS011;54562;47.620;18.786;2023-08-12T07:34:56;5.60;;;2.90;;
67757;SDS011;54562;47.620;18.786;2023-08-12T07:38:03;5.80;;;3.00;;
67757;SDS011;54562;47.620;18.786;2023-08-12T07:41:10;7.00;;;2.80;;
67757;SDS011;54562;47.620;18.786;2023-08-12T07:44:16;5.40;;;2.70;;
67757;SDS011;54562;47.620;18.786;2023-08-12T07:50:55;5.50;;;2.80;;
67757;SDS011;54562;47.620;18.786;2023-08-12T07:54:02;5.60;;;2.50;;
67757;SDS011;54562;47.620;18.786;2023-08-12T08:00:45;5.20;;;2.70;;
67757;SDS011;54562;47.620;18.786;2023-08-12T08:03:51;5.80;;;2.70;;
67757;SDS011;54562;47.620;18.786;2023-08-12T08:06:57;8.20;;;2.80;;
67757;SDS011;54562;47.620;18.786;2023-08-12T08:10:04;8.10;;;3.10;;
67757;SDS011;54562;47.620;18.786;2023-08-12T08:13:12;5.00;;;2.70;;
67757;SDS011;54562;47.620;18.786;2023-08-12T08:19:23;7.50;;;3.00;;
67757;SDS011;54562;47.620;18.786;2023-08-12T08:22:32;5.90;;;2.80;;
67757;SDS011;54562;47.620;18.786;2023-08-12T08:25:39;5.90;;;2.60;;
67757;SDS011;54562;47.620;18.786;2023-08-12T08:28:45;5.40;;;2.70;;
67757;SDS011;54562;47.620;18.786;2023-08-12T08:31:52;5.70;;;2.80;;
67757;SDS011;54562;47.620;18.786;2023-08-12T08:35:02;5.60;;;2.70;;
67757;SDS011;54562;47.620;18.786;2023-08-12T08:38:09;5.70;;;2.70;;
67757;SDS011;54562;47.620;18.786;2023-08-12T08:41:16;5.50;;;2.60;;
67757;SDS011;54562;47.620;18.786;2023-08-12T08:44:23;6.80;;;2.70;;
67757;SDS011;54562;47.620;18.786;2023-08-12T08:47:30;5.90;;;2.60;;
67757;SDS011;54562;47.620;18.786;2023-08-12T08:50:37;5.70;;;2.80;;
67757;SDS011;54562;47.620;18.786;2023-08-12T08:53:44;6.00;;;3.40;;
67757;SDS011;54562;47.620;18.786;2023-08-12T08:56:54;7.70;;;2.70;;
67757;SDS011;54562;47.620;18.786;2023-08-12T09:00:09;5.20;;;2.60;;
67757;SDS011;54562;47.620;18.786;2023-08-12T09:03:20;6.00;;;2.70;;
67757;SDS011;54562;47.620;18.786;2023-08-12T09:06:28;5.20;;;2.60;;
67757;SDS011;54562;47.620;18.786;2023-08-12T09:09:35;7.30;;;2.50;;
67757;SDS011;54562;47.620;18.786;2023-08-12T09:12:47;5.70;;;2.60;;
67757;SDS011;54562;47.620;18.786;2023-08-12T09:16:11;5.60;;;2.70;;
67757;SDS011;54562;47.620;18.786;2023-08-12T09:19:41;5.70;;;2.70;;
67757;SDS011;54562;47.620;18.786;2023-08-12T09:23:10;6.40;;;2.60;;
67757;SDS011;54562;47.620;18.786;2023-08-12T09:26:19;5.40;;;2.90;;
67757;SDS011;54562;47.620;18.786;2023-08-12T09:33:10;6.00;;;2.70;;
67757;SDS011;54562;47.620;18.786;2023-08-12T09:36:17;7.80;;;3.20;;
67757;SDS011;54562;47.620;18.786;2023-08-12T09:39:23;5.40;;;2.80;;
67757;SDS011;54562;47.620;18.786;2023-08-12T09:42:31;5.40;;;2.50;;
67757;SDS011;54562;47.620;18.786;2023-08-12T09:45:40;5.80;;;2.60;;
67757;SDS011;54562;47.620;18.786;2023-08-12T09:48:48;5.40;;;2.60;;
67757;SDS011;54562;47.620;18.786;2023-08-12T09:51:56;9.00;;;2.60;;
67757;SDS011;54562;47.620;18.786;2023-08-12T09:55:02;5.70;;;2.40;;
67757;SDS011;54562;47.620;18.786;2023-08-12T09:58:10;5.30;;;2.60;;
67757;SDS011;54562;47.620;18.786;2023-08-12T10:01:17;7.70;;;2.60;;
67757;SDS011;54562;47.620;18.786;2023-08-12T10:04:26;6.20;;;2.60;;
67757;SDS011;54562;47.620;18.786;2023-08-12T10:07:36;6.10;;;2.70;;
67757;SDS011;54562;47.620;18.786;2023-08-12T10:10:42;5.40;;;2.80;;
67757;SDS011;54562;47.620;18.786;2023-08-12T10:14:01;4.90;;;2.70;;
67757;SDS011;54562;47.620;18.786;2023-08-12T10:17:09;6.20;;;2.90;;
67757;SDS011;54562;47.620;18.786;2023-08-12T10:20:19;5.20;;;2.60;;
67757;SDS011;54562;47.620;18.786;2023-08-12T10:23:28;5.40;;;2.90;;
67757;SDS011;54562;47.620;18.786;2023-08-12T10:26:34;7.50;;;2.90;;
67757;SDS011;54562;47.620;18.786;2023-08-12T10:29:43;6.80;;;2.90;;
67757;SDS011;54562;47.620;18.786;2023-08-12T10:32:50;7.10;;;3.00;;
67757;SDS011;54562;47.620;18.786;2023-08-12T10:35:56;6.40;;;2.60;;
67757;SDS011;54562;47.620;18.786;2023-08-12T10:39:03;4.80;;;2.40;;
67757;SDS011;54562;47.620;18.786;2023-08-12T10:42:14;5.90;;;2.40;;
67757;SDS011;54562;47.620;18.786;2023-08-12T10:45:48;5.30;;;2.70;;
67757;SDS011;54562;47.620;18.786;2023-08-12T10:49:06;5.20;;;2.70;;
67757;SDS011;54562;47.620;18.786;2023-08-12T10:52:20;5.90;;;2.60;;
67757;SDS011;54562;47.620;18.786;2023-08-12T10:55:33;6.40;;;2.70;;
67757;SDS011;54562;47.620;18.786;2023-08-12T10:58:44;5.80;;;2.70;;
67757;SDS011;54562;47.620;18.786;2023-08-12T11:01:52;4.30;;;2.30;;
67757;SDS011;54562;47.620;18.786;2023-08-12T11:05:00;5.40;;;2.60;;
67757;SDS011;54562;47.620;18.786;2023-08-12T11:08:07;5.40;;;2.60;;
67757;SDS011;54562;47.620;18.786;2023-08-12T11:11:20;8.60;;;2.40;;
67757;SDS011;54562;47.620;18.786;2023-08-12T11:14:27;5.90;;;2.50;;
67757;SDS011;54562;47.620;18.786;2023-08-12T11:17:34;6.50;;;2.70;;
67757;SDS011;54562;47.620;18.786;2023-08-12T11:20:42;5.70;;;2.40;;
67757;SDS011;54562;47.620;18.786;2023-08-12T11:23:49;11.10;;;3.10;;
67757;SDS011;54562;47.620;18.786;2023-08-12T11:26:56;5.70;;;2.70;;
67757;SDS011;54562;47.620;18.786;2023-08-12T11:30:04;5.00;;;2.50;;
67757;SDS011;54562;47.620;18.786;2023-08-12T11:33:11;6.10;;;2.40;;
67757;SDS011;54562;47.620;18.786;2023-08-12T11:36:21;5.70;;;2.60;;
67757;SDS011;54562;47.620;18.786;2023-08-12T11:39:28;6.10;;;2.60;;
67757;SDS011;54562;47.620;18.786;2023-08-12T11:42:35;6.70;;;2.50;;
67757;SDS011;54562;47.620;18.786;2023-08-12T11:45:42;6.80;;;2.60;;
67757;SDS011;54562;47.620;18.786;2023-08-12T11:48:49;4.90;;;2.30;;
67757;SDS011;54562;47.620;18.786;2023-08-12T11:51:55;5.30;;;2.50;;
67757;SDS011;54562;47.620;18.786;2023-08-12T11:55:03;30.00;;;5.80;;
67757;SDS011;54562;47.620;18.786;2023-08-12T11:58:10;18.90;;;5.60;;
67757;SDS011;54562;47.620;18.786;2023-08-12T12:01:22;4.90;;;2.50;;
67757;SDS011;54562;47.620;18.786;2023-08-12T12:04:28;4.60;;;2.30;;
67757;SDS011;54562;47.620;18.786;2023-08-12T12:07:36;6.00;;;2.40;;
67757;SDS011;54562;47.620;18.786;2023-08-12T12:10:43;6.30;;;2.70;;
67757;SDS011;54562;47.620;18.786;2023-08-12T12:13:50;5.10;;;2.30;;
67757;SDS011;54562;47.620;18.786;2023-08-12T12:16:57;5.10;;;2.30;;
67757;SDS011;54562;47.620;18.786;2023-08-12T12:20:04;4.70;;;2.40;;
67757;SDS011;54562;47.620;18.786;2023-08-12T12:23:15;5.80;;;2.30;;
67757;SDS011;54562;47.620;18.786;2023-08-12T12:26:22;4.40;;;2.40;;
67757;SDS011;54562;47.620;18.786;2023-08-12T12:29:29;5.30;;;2.30;;
67757;SDS011;54562;47.620;18.786;2023-08-12T12:32:36;4.60;;;2.40;;
67757;SDS011;54562;47.620;18.786;2023-08-12T12:35:43;5.30;;;2.40;;
67757;SDS011;54562;47.620;18.786;2023-08-12T12:39:00;6.40;;;2.40;;
67757;SDS011;54562;47.620;18.786;2023-08-12T12:42:07;4.80;;;2.30;;
67757;SDS011;54562;47.620;18.786;2023-08-12T12:45:14;6.40;;;3.00;;
67757;SDS011;54562;47.620;18.786;2023-08-12T12:48:22;7.10;;;2.50;;
67757;SDS011;54562;47.620;18.786;2023-08-12T12:51:28;4.90;;;2.40;;
67757;SDS011;54562;47.620;18.786;2023-08-12T12:54:35;5.50;;;2.30;;
67757;SDS011;54562;47.620;18.786;2023-08-12T12:57:44;6.10;;;2.20;;
67757;SDS011;54562;47.620;18.786;2023-08-12T13:00:51;7.30;;;2.90;;
67757;SDS011;54562;47.620;18.786;2023-08-12T13:03:58;6.80;;;2.30;;
67757;SDS011;54562;47.620;18.786;2023-08-12T13:07:05;5.60;;;2.30;;
67757;SDS011;54562;47.620;18.786;2023-08-12T13:10:12;5.10;;;2.30;;
67757;SDS011;54562;47.620;18.786;2023-08-12T13:13:19;7.10;;;2.60;;
67757;SDS011;54562;47.620;18.786;2023-08-12T13:16:26;6.20;;;2.50;;
67757;SDS011;54562;47.620;18.786;2023-08-12T13:19:32;8.20;;;3.10;;
67757;SDS011;54562;47.620;18.786;2023-08-12T13:22:39;5.20;;;2.50;;
67757;SDS011;54562;47.620;18.786;2023-08-12T13:25:46;5.10;;;2.60;;
67757;SDS011;54562;47.620;18.786;2023-08-12T13:28:53;5.90;;;2.20;;
67757;SDS011;54562;47.620;18.786;2023-08-12T13:31:59;4.80;;;2.20;;
67757;SDS011;54562;47.620;18.786;2023-08-12T13:35:06;17.90;;;7.60;;
67757;SDS011;54562;47.620;18.786;2023-08-12T13:38:14;5.50;;;2.50;;
67757;SDS011;54562;47.620;18.786;2023-08-12T13:41:20;5.40;;;2.40;;
67757;SDS011;54562;47.620;18.786;2023-08-12T13:44:27;6.20;;;2.30;;
67757;SDS011;54562;47.620;18.786;2023-08-12T13:47:34;4.80;;;2.50;;
67757;SDS011;54562;47.620;18.786;2023-08-12T13:50:40;6.70;;;2.60;;
67757;SDS011;54562;47.620;18.786;2023-08-12T13:53:47;5.20;;;2.40;;
67757;SDS011;54562;47.620;18.786;2023-08-12T13:56:53;6.00;;;2.30;;
67757;SDS011;54562;47.620;18.786;2023-08-12T13:59:59;5.10;;;2.50;;
67757;SDS011;54562;47.620;18.786;2023-08-12T14:03:09;5.50;;;2.30;;
67757;SDS011;54562;47.620;18.786;2023-08-12T14:06:16;5.30;;;2.50;;
67757;SDS011;54562;47.620;18.786;2023-08-12T14:09:22;5.30;;;2.60;;
67757;SDS011;54562;47.620;18.786;2023-08-12T14:12:29;4.90;;;2.40;;
67757;SDS011;54562;47.620;18.786;2023-08-12T14:15:35;7.80;;;3.20;;
67757;SDS011;54562;47.620;18.786;2023-08-12T14:18:41;4.80;;;2.50;;
67757;SDS011;54562;47.620;18.786;2023-08-12T14:21:48;5.80;;;2.60;;
67757;SDS011;54562;47.620;18.786;2023-08-12T14:24:54;5.10;;;2.60;;
67757;SDS011;54562;47.620;18.786;2023-08-12T14:28:03;5.00;;;2.30;;
67757;SDS011;54562;47.620;18.786;2023-08-12T14:31:10;4.50;;;2.40;;
67757;SDS011;54562;47.620;18.786;2023-08-12T14:34:16;6.90;;;2.40;;
67757;SDS011;54562;47.620;18.786;2023-08-12T14:37:22;7.20;;;2.60;;
67757;SDS011;54562;47.620;18.786;2023-08-12T14:40:30;7.10;;;2.60;;
67757;SDS011;54562;47.620;18.786;2023-08-12T14:43:37;5.00;;;2.40;;
67757;SDS011;54562;47.620;18.786;2023-08-12T14:46:44;4.70;;;2.30;;
67757;SDS011;54562;47.620;18.786;2023-08-12T14:49:50;7.00;;;2.60;;
67757;SDS011;54562;47.620;18.786;2023-08-12T14:52:56;6.30;;;2.50;;
67757;SDS011;54562;47.620;18.786;2023-08-12T14:56:03;5.00;;;2.50;;
67757;SDS011;54562;47.620;18.786;2023-08-12T14:59:10;4.60;;;2.50;;
67757;SDS011;54562;47.620;18.786;2023-08-12T15:02:16;7.80;;;2.50;;
67757;SDS011;54562;47.620;18.786;2023-08-12T15:05:24;5.00;;;2.30;;
67757;SDS011;54562;47.620;18.786;2023-08-12T15:08:30;5.00;;;2.40;;
67757;SDS011;54562;47.620;18.786;2023-08-12T15:11:36;6.90;;;2.40;;
67757;SDS011;54562;47.620;18.786;2023-08-12T15:14:43;10.90;;;2.60;;
67757;SDS011;54562;47.620;18.786;2023-08-12T15:17:49;5.70;;;2.60;;
67757;SDS011;54562;47.620;18.786;2023-08-12T15:20:56;7.00;;;2.80;;
67757;SDS011;54562;47.620;18.786;2023-08-12T15:24:02;5.60;;;2.70;;
67757;SDS011;54562;47.620;18.786;2023-08-12T15:27:09;5.40;;;2.60;;
67757;SDS011;54562;47.620;18.786;2023-08-12T15:30:17;5.70;;;2.40;;
67757;SDS011;54562;47.620;18.786;2023-08-12T15:33:23;5.60;;;2.60;;
67757;SDS011;54562;47.620;18.786;2023-08-12T15:36:29;5.50;;;2.40;;
67757;SDS011;54562;47.620;18.786;2023-08-12T15:39:38;6.10;;;2.60;;
67757;SDS011;54562;47.620;18.786;2023-08-12T15:42:44;8.40;;;2.60;;
67757;SDS011;54562;47.620;18.786;2023-08-12T15:45:53;15.70;;;3.00;;
67757;SDS011;54562;47.620;18.786;2023-08-12T15:48:59;7.30;;;2.70;;
67757;SDS011;54562;47.620;18.786;2023-08-12T15:52:10;5.40;;;2.40;;
67757;SDS011;54562;47.620;18.786;2023-08-12T15:55:17;5.50;;;2.70;;
67757;SDS011;54562;47.620;18.786;2023-08-12T15:58:23;6.00;;;2.70;;
67757;SDS011;54562;47.620;18.786;2023-08-12T16:01:29;6.40;;;2.70;;
67757;SDS011;54562;47.620;18.786;2023-08-12T16:04:36;6.40;;;2.70;;
67757;SDS011;54562;47.620;18.786;2023-08-12T16:07:42;7.50;;;2.70;;
67757;SDS011;54562;47.620;18.786;2023-08-12T16:10:49;6.20;;;2.80;;
67757;SDS011;54562;47.620;18.786;2023-08-12T16:13:55;7.70;;;2.80;;
67757;SDS011;54562;47.620;18.786;2023-08-12T16:17:02;5.10;;;2.60;;
67757;SDS011;54562;47.620;18.786;2023-08-12T16:20:13;13.60;;;3.30;;
67757;SDS011;54562;47.620;18.786;2023-08-12T16:23:19;5.70;;;2.70;;
67757;SDS011;54562;47.620;18.786;2023-08-12T16:26:25;8.00;;;3.00;;
67757;SDS011;54562;47.620;18.786;2023-08-12T16:29:32;6.70;;;2.80;;
67757;SDS011;54562;47.620;18.786;2023-08-12T16:32:38;6.00;;;2.80;;
67757;SDS011;54562;47.620;18.786;2023-08-12T16:35:45;5.20;;;2.90;;
67757;SDS011;54562;47.620;18.786;2023-08-12T16:38:52;5.70;;;2.90;;
67757;SDS011;54562;47.620;18.786;2023-08-12T16:41:59;5.10;;;2.70;;
67757;SDS011;54562;47.620;18.786;2023-08-12T16:45:06;5.20;;;2.70;;
67757;SDS011;54562;47.620;18.786;2023-08-12T16:48:14;5.80;;;2.70;;
67757;SDS011;54562;47.620;18.786;2023-08-12T16:51:20;5.70;;;2.70;;
67757;SDS011;54562;47.620;18.786;2023-08-12T16:54:27;5.20;;;2.70;;
67757;SDS011;54562;47.620;18.786;2023-08-12T16:57:34;6.30;;;2.70;;
67757;SDS011;54562;47.620;18.786;2023-08-12T17:00:42;7.10;;;3.10;;
67757;SDS011;54562;47.620;18.786;2023-08-12T17:06:54;10.20;;;3.20;;
67757;SDS011;54562;47.620;18.786;2023-08-12T17:10:01;10.00;;;3.00;;
67757;SDS011;54562;47.620;18.786;2023-08-12T17:13:07;10.00;;;3.20;;
67757;SDS011;54562;47.620;18.786;2023-08-12T17:16:14;6.50;;;3.10;;
67757;SDS011;54562;47.620;18.786;2023-08-12T17:19:21;6.40;;;2.80;;
67757;SDS011;54562;47.620;18.786;2023-08-12T17:22:27;8.40;;;2.80;;
67757;SDS011;54562;47.620;18.786;2023-08-12T17:25:33;8.00;;;2.90;;
67757;SDS011;54562;47.620;18.786;2023-08-12T17:28:39;8.50;;;3.20;;
67757;SDS011;54562;47.620;18.786;2023-08-12T17:31:46;20.00;;;3.60;;
67757;SDS011;54562;47.620;18.786;2023-08-12T17:34:52;7.30;;;3.30;;
67757;SDS011;54562;47.620;18.786;2023-08-12T17:37:58;6.50;;;3.00;;
67757;SDS011;54562;47.620;18.786;2023-08-12T17:41:04;10.90;;;3.20;;
67757;SDS011;54562;47.620;18.786;2023-08-12T17:44:11;12.80;;;3.60;;
67757;SDS011;54562;47.620;18.786;2023-08-12T17:47:17;6.30;;;3.30;;
67757;SDS011;54562;47.620;18.786;2023-08-12T17:50:24;6.20;;;3.30;;
67757;SDS011;54562;47.620;18.786;2023-08-12T17:53:30;5.90;;;3.30;;
67757;SDS011;54562;47.620;18.786;2023-08-12T17:56:36;5.60;;;3.20;;
67757;SDS011;54562;47.620;18.786;2023-08-12T17:59:43;17.00;;;3.80;;
67757;SDS011;54562;47.620;18.786;2023-08-12T18:02:49;10.30;;;3.50;;
67757;SDS011;54562;47.620;18.786;2023-08-12T18:05:55;6.50;;;3.40;;
67757;SDS011;54562;47.620;18.786;2023-08-12T18:09:02;9.30;;;3.30;;
67757;SDS011;54562;47.620;18.786;2023-08-12T18:12:11;7.80;;;3.50;;
67757;SDS011;54562;47.620;18.786;2023-08-12T18:15:18;6.00;;;3.10;;
67757;SDS011;54562;47.620;18.786;2023-08-12T18:18:24;9.60;;;3.40;;
67757;SDS011;54562;47.620;18.786;2023-08-12T18:21:30;6.80;;;3.10;;
67757;SDS011;54562;47.620;18.786;2023-08-12T18:24:36;6.70;;;3.30;;
67757;SDS011;54562;47.620;18.786;2023-08-12T18:27:43;5.90;;;3.30;;
67757;SDS011;54562;47.620;18.786;2023-08-12T18:30:49;6.90;;;3.70;;
67757;SDS011;54562;47.620;18.786;2023-08-12T18:33:55;6.40;;;3.50;;
67757;SDS011;54562;47.620;18.786;2023-08-12T18:37:02;7.60;;;3.20;;
67757;SDS011;54562;47.620;18.786;2023-08-12T18:40:09;6.00;;;3.50;;
67757;SDS011;54562;47.620;18.786;2023-08-12T18:43:16;6.50;;;3.40;;
67757;SDS011;54562;47.620;18.786;2023-08-12T18:46:22;6.30;;;3.20;;
67757;SDS011;54562;47.620;18.786;2023-08-12T18:49:29;6.90;;;3.30;;
67757;SDS011;54562;47.620;18.786;2023-08-12T18:52:37;6.00;;;3.20;;
67757;SDS011;54562;47.620;18.786;2023-08-12T18:55:43;6.30;;;3.20;;